createdAt,value
2019-05-14T00:00:27.621Z,75.00
2019-05-14T00:02:56.158Z,75.10
2019-05-14T00:05:24.625Z,75.00
2019-05-14T00:07:53.127Z,74.90
2019-05-14T00:10:21.898Z,75.40
2019-05-14T00:12:51.249Z,75.00
2019-05-14T00:15:21.654Z,74.90
2019-05-14T00:17:52.213Z,74.90
2019-05-14T00:20:22.606Z,75.60
2019-05-14T00:22:52.164Z,75.00
2019-05-14T00:25:22.053Z,75.10
2019-05-14T00:27:51.960Z,74.80
2019-05-14T00:30:22.061Z,74.70
2019-05-14T00:32:52.098Z,75.60
2019-05-14T00:35:21.534Z,75.60
2019-05-14T00:37:52.102Z,75.40
2019-05-14T00:40:22.038Z,75.60
2019-05-14T00:42:53.117Z,75.40
2019-05-14T00:45:21.802Z,75.40
2019-05-14T00:47:52.486Z,75.80
2019-05-14T00:50:21.770Z,76.10
2019-05-14T00:52:51.659Z,76.00
2019-05-14T00:55:22.291Z,76.10
2019-05-14T00:57:52.219Z,76.10
2019-05-14T01:00:22.044Z,76.20
2019-05-14T01:02:51.783Z,76.00
2019-05-14T01:05:21.552Z,76.20
2019-05-14T01:07:51.389Z,76.40
2019-05-14T01:10:22.149Z,76.80
2019-05-14T01:12:52.076Z,77.20
2019-05-14T01:15:21.637Z,77.10
2019-05-14T01:17:51.546Z,77.00
2019-05-14T01:20:21.285Z,76.80
2019-05-14T01:22:51.585Z,76.60
2019-05-14T01:25:23.319Z,76.80
2019-05-14T01:27:52.045Z,76.80
2019-05-14T01:30:21.433Z,77.00
2019-05-14T01:32:51.193Z,76.80
2019-05-14T01:35:23.038Z,77.00
2019-05-14T01:37:52.156Z,76.60
2019-05-14T01:40:21.819Z,76.30
2019-05-14T01:42:52.590Z,76.30
2019-05-14T01:45:27.238Z,76.30
2019-05-14T01:47:52.052Z,76.20
2019-05-14T01:50:21.515Z,76.10
2019-05-14T01:52:53.912Z,75.90
2019-05-14T01:55:22.368Z,76.20
2019-05-14T01:57:51.721Z,76.70
2019-05-14T02:00:22.124Z,76.30
2019-05-14T02:02:52.510Z,76.10
2019-05-14T02:05:21.789Z,76.30
2019-05-14T02:07:52.593Z,76.30
2019-05-14T02:10:22.194Z,76.20
2019-05-14T02:12:51.552Z,76.50
2019-05-14T02:15:21.389Z,76.40
2019-05-14T02:17:51.910Z,76.50
2019-05-14T02:20:21.613Z,76.40
2019-05-14T02:22:52.463Z,76.40
2019-05-14T02:25:21.666Z,76.60
2019-05-14T02:27:51.983Z,76.60
2019-05-14T02:30:28.455Z,76.70
2019-05-14T02:32:50.875Z,76.70
2019-05-14T02:35:20.215Z,76.90
2019-05-14T02:37:50.382Z,76.90
2019-05-14T02:40:20.305Z,77.00
2019-05-14T02:42:49.757Z,77.40
2019-05-14T02:45:19.971Z,77.50
2019-05-14T02:47:50.323Z,77.00
2019-05-14T02:50:20.311Z,77.80
2019-05-14T02:52:52.591Z,77.60
2019-05-14T02:55:21.036Z,78.00
2019-05-14T02:57:50.044Z,78.10
2019-05-14T03:00:19.607Z,78.00
2019-05-14T03:02:49.492Z,78.30
2019-05-14T03:05:19.172Z,78.40
2019-05-14T03:07:49.965Z,78.70
2019-05-14T03:10:19.377Z,78.60
2019-05-14T03:12:50.358Z,78.60
2019-05-14T03:15:20.261Z,78.50
2019-05-14T03:17:51.145Z,79.00
2019-05-14T03:20:20.103Z,78.90
2019-05-14T03:23:02.519Z,79.00
2019-05-14T03:25:19.574Z,79.20
2019-05-14T03:27:49.760Z,79.40
2019-05-14T03:30:22.981Z,79.60
2019-05-14T03:32:52.836Z,80.00
2019-05-14T03:35:24.071Z,80.00
2019-05-14T03:37:49.982Z,80.30
2019-05-14T03:40:19.493Z,81.00
2019-05-14T03:42:49.039Z,80.40
2019-05-14T03:45:19.500Z,81.00
2019-05-14T03:47:51.614Z,81.20
2019-05-14T03:50:20.174Z,81.30
2019-05-14T03:52:49.809Z,81.60
2019-05-14T03:55:20.216Z,81.70
2019-05-14T03:57:50.019Z,82.50
2019-05-14T04:00:21.852Z,81.70
2019-05-14T04:02:50.541Z,81.90
2019-05-14T04:05:22.629Z,81.90
2019-05-14T04:07:52.513Z,82.40
2019-05-14T04:10:21.518Z,81.70
2019-05-14T04:12:52.011Z,82.10
2019-05-14T04:15:23.564Z,82.50
2019-05-14T04:17:53.348Z,82.40
2019-05-14T04:20:23.330Z,82.80
2019-05-14T04:22:53.422Z,83.20
2019-05-14T04:25:21.870Z,83.10
2019-05-14T04:27:51.936Z,83.30
2019-05-14T04:30:23.918Z,82.90
2019-05-14T04:32:52.886Z,82.40
2019-05-14T04:35:21.520Z,81.70
2019-05-14T04:37:50.277Z,80.80
2019-05-14T04:40:19.122Z,80.60
2019-05-14T04:42:50.464Z,79.80
2019-05-14T04:45:19.703Z,79.60
2019-05-14T04:47:49.808Z,79.50
2019-05-14T04:50:20.121Z,78.40
2019-05-14T04:52:49.756Z,77.90
2019-05-14T04:55:20.436Z,77.40
2019-05-14T04:57:50.415Z,76.70
2019-05-14T05:00:19.983Z,75.30
2019-05-14T05:02:49.682Z,74.80
2019-05-14T05:05:19.734Z,74.90
2019-05-14T05:07:49.392Z,75.40
2019-05-14T05:10:19.285Z,75.00
2019-05-14T05:12:49.275Z,74.20
2019-05-14T05:15:19.807Z,73.70
2019-05-14T05:17:52.644Z,74.70
2019-05-14T05:20:19.447Z,74.50
2019-05-14T05:22:48.659Z,74.10
2019-05-14T05:25:18.927Z,74.20
2019-05-14T05:27:48.689Z,73.20
2019-05-14T05:30:19.014Z,73.10
2019-05-14T05:32:49.452Z,72.50
2019-05-14T05:35:18.693Z,72.80
2019-05-14T05:37:49.067Z,73.10
2019-05-14T05:40:19.663Z,73.50
2019-05-14T05:42:49.852Z,73.40
2019-05-14T05:45:18.743Z,72.90
2019-05-14T05:47:57.157Z,72.70
2019-05-14T05:50:19.295Z,72.30
2019-05-14T05:52:49.816Z,72.70
2019-05-14T05:55:19.121Z,72.30
2019-05-14T05:57:49.215Z,71.60
2019-05-14T06:00:33.302Z,71.60
2019-05-14T06:03:02.022Z,71.60
2019-05-14T06:05:30.564Z,71.00
2019-05-14T06:07:59.190Z,72.50
2019-05-14T06:10:29.195Z,71.60
2019-05-14T06:12:58.567Z,72.00
2019-05-14T06:15:43.799Z,72.40
2019-05-14T06:18:11.536Z,73.10
2019-05-14T06:20:28.199Z,73.30
2019-05-14T06:22:58.863Z,73.20
2019-05-14T06:25:30.888Z,74.30
2019-05-14T06:27:59.050Z,73.50
2019-05-14T06:30:40.595Z,73.00
2019-05-14T06:33:09.401Z,72.30
2019-05-14T06:35:39.532Z,72.60
2019-05-14T06:38:08.928Z,72.30
2019-05-14T06:40:39.579Z,72.30
2019-05-14T06:43:09.141Z,71.10
2019-05-14T06:45:38.866Z,70.90
2019-05-14T06:48:08.806Z,70.50
2019-05-14T06:50:39.142Z,69.30
2019-05-14T06:53:08.519Z,68.40
2019-05-14T06:55:39.337Z,68.50
2019-05-14T06:58:09.228Z,68.40
2019-05-14T07:00:39.420Z,69.50
2019-05-14T07:03:08.943Z,68.90
2019-05-14T07:05:39.027Z,67.20
2019-05-14T07:08:08.948Z,67.20
2019-05-14T07:10:39.450Z,68.30
2019-05-14T07:13:08.643Z,67.00
2019-05-14T07:15:38.674Z,66.10
2019-05-14T07:18:08.662Z,66.40
2019-05-14T07:20:39.123Z,66.60
2019-05-14T07:23:08.301Z,64.20
2019-05-14T07:25:39.102Z,64.20
2019-05-14T07:28:08.828Z,64.70
2019-05-14T07:30:39.593Z,64.20
2019-05-14T07:33:09.454Z,63.90
2019-05-14T07:35:38.341Z,61.80
2019-05-14T07:38:09.027Z,60.70
2019-05-14T07:40:38.850Z,61.10
2019-05-14T07:43:08.986Z,60.90
2019-05-14T07:45:38.522Z,58.30
2019-05-14T07:48:09.268Z,58.90
2019-05-14T07:50:39.687Z,59.10
2019-05-14T07:53:09.034Z,58.40
2019-05-14T07:55:38.546Z,58.90
2019-05-14T07:58:08.337Z,59.50
2019-05-14T08:00:39.957Z,57.50
2019-05-14T08:03:08.251Z,59.70
2019-05-14T08:05:38.946Z,57.90
2019-05-14T08:08:08.011Z,57.80
2019-05-14T08:10:39.071Z,57.30
2019-05-14T08:13:08.432Z,57.10
2019-05-14T08:15:38.711Z,56.10
2019-05-14T08:18:08.076Z,55.40
2019-05-14T08:20:37.956Z,54.70
2019-05-14T08:23:08.932Z,57.10
2019-05-14T08:25:39.032Z,56.30
2019-05-14T08:28:08.191Z,56.20
2019-05-14T08:30:38.906Z,56.60
2019-05-14T08:33:08.954Z,57.90
2019-05-14T08:35:39.482Z,55.70
2019-05-14T08:38:12.239Z,56.90
2019-05-14T08:40:40.106Z,58.20
2019-05-14T08:43:08.779Z,57.00
2019-05-14T08:45:38.931Z,58.10
2019-05-14T08:48:09.147Z,58.00
2019-05-14T08:50:38.809Z,57.70
2019-05-14T08:53:10.239Z,55.40
2019-05-14T08:55:38.801Z,53.30
2019-05-14T08:58:13.080Z,54.20
2019-05-14T09:00:38.994Z,55.90
2019-05-14T09:03:08.522Z,54.90
2019-05-14T09:05:38.633Z,53.00
2019-05-14T09:08:09.239Z,53.50
2019-05-14T09:10:40.022Z,53.90
2019-05-14T09:13:08.648Z,55.00
2019-05-14T09:15:38.465Z,52.30
2019-05-14T09:18:11.502Z,52.40
2019-05-14T09:20:38.174Z,52.10
2019-05-14T09:23:09.146Z,54.60
2019-05-14T09:25:45.280Z,52.20
2019-05-14T09:28:09.073Z,51.50
2019-05-14T09:30:38.139Z,52.90
2019-05-14T09:33:08.631Z,48.90
2019-05-14T09:35:38.659Z,51.00
2019-05-14T09:38:08.696Z,52.40
2019-05-14T09:40:39.764Z,51.00
2019-05-14T09:43:09.184Z,50.40
2019-05-14T09:45:38.887Z,52.20
2019-05-14T09:48:08.820Z,53.20
2019-05-14T09:50:38.399Z,48.30
2019-05-14T09:53:09.689Z,49.10
2019-05-14T09:55:38.929Z,49.90
2019-05-14T09:58:08.183Z,49.20
2019-05-14T10:00:39.038Z,49.60
2019-05-14T10:03:09.700Z,51.30
2019-05-14T10:05:37.487Z,49.50
2019-05-14T10:08:08.775Z,49.00
2019-05-14T10:10:39.879Z,49.20
2019-05-14T10:13:09.714Z,49.80
2019-05-14T10:15:39.070Z,52.00
2019-05-14T10:18:12.004Z,50.60
2019-05-14T10:20:45.561Z,49.80
2019-05-14T10:23:09.294Z,49.80
2019-05-14T10:25:42.347Z,47.90
2019-05-14T10:28:09.781Z,46.50
2019-05-14T10:30:38.413Z,46.60
2019-05-14T10:33:10.725Z,49.40
2019-05-14T10:35:39.093Z,44.50
2019-05-14T10:38:08.778Z,45.80
2019-05-14T10:40:38.502Z,45.40
2019-05-14T10:43:09.112Z,45.40
2019-05-14T10:45:38.435Z,44.40
2019-05-14T10:48:09.595Z,43.20
2019-05-14T10:50:55.216Z,43.90
2019-05-14T10:53:08.953Z,43.50
2019-05-14T10:55:38.645Z,44.30
2019-05-14T10:58:08.849Z,44.90
2019-05-14T11:00:41.518Z,43.40
2019-05-14T11:03:08.039Z,43.00
2019-05-14T11:05:41.300Z,42.70
2019-05-14T11:08:11.662Z,42.60
2019-05-14T11:10:41.888Z,43.10
2019-05-14T11:13:08.947Z,42.00
2019-05-14T11:15:39.495Z,45.10
2019-05-14T11:18:08.662Z,44.50
2019-05-14T11:20:41.702Z,43.00
2019-05-14T11:23:08.954Z,41.80
2019-05-14T11:25:38.450Z,41.40
2019-05-14T11:28:07.051Z,41.80
2019-05-14T11:30:35.539Z,43.40
2019-05-14T11:33:04.133Z,42.00
2019-05-14T11:35:32.678Z,42.60
2019-05-14T11:38:01.130Z,42.60
2019-05-14T11:40:29.612Z,38.20
2019-05-14T11:42:59.281Z,41.10
2019-05-14T11:45:28.177Z,39.50
2019-05-14T11:47:58.366Z,42.00
2019-05-14T11:50:28.645Z,41.10
2019-05-14T11:52:58.541Z,40.30
2019-05-14T11:55:28.948Z,40.70
2019-05-14T11:57:58.248Z,42.90
2019-05-14T12:00:29.504Z,43.00
2019-05-14T12:02:58.684Z,41.70
2019-05-14T12:05:30.265Z,42.00
2019-05-14T12:07:57.791Z,41.10
2019-05-14T12:10:29.130Z,40.30
2019-05-14T12:12:58.450Z,41.20
2019-05-14T12:15:27.063Z,38.20
2019-05-14T12:17:55.534Z,38.80
2019-05-14T12:20:24.067Z,39.70
2019-05-14T12:22:52.623Z,39.80
2019-05-14T12:25:21.086Z,39.90
2019-05-14T12:27:49.812Z,39.30
2019-05-14T12:30:19.714Z,38.90
2019-05-14T12:32:50.524Z,39.70
2019-05-14T12:35:19.767Z,38.10
2019-05-14T12:37:48.784Z,36.40
2019-05-14T12:40:19.385Z,37.60
2019-05-14T12:42:49.840Z,38.20
2019-05-14T12:45:19.054Z,37.40
2019-05-14T12:47:50.134Z,36.10
2019-05-14T12:50:18.564Z,36.50
2019-05-14T12:52:48.538Z,36.80
2019-05-14T12:55:19.574Z,37.60
2019-05-14T12:57:48.736Z,38.40
2019-05-14T13:00:17.915Z,39.00
2019-05-14T13:02:46.395Z,36.50
2019-05-14T13:05:15.306Z,38.00
2019-05-14T13:07:43.770Z,37.00
2019-05-14T13:10:14.331Z,36.60
2019-05-14T13:12:42.566Z,37.20
2019-05-14T13:15:11.272Z,39.20
2019-05-14T13:17:39.747Z,40.30
2019-05-14T13:20:13.643Z,38.80
2019-05-14T13:22:46.095Z,39.10
2019-05-14T13:25:11.106Z,39.90
2019-05-14T13:27:41.984Z,37.50
2019-05-14T13:30:10.462Z,39.80
2019-05-14T13:32:39.824Z,38.90
2019-05-14T13:35:13.143Z,38.00
2019-05-14T13:37:39.837Z,38.10
2019-05-14T13:40:09.506Z,38.00
2019-05-14T13:42:40.015Z,36.80
2019-05-14T13:45:10.226Z,37.20
2019-05-14T13:47:39.182Z,37.20
2019-05-14T13:50:09.389Z,36.60
2019-05-14T13:52:58.184Z,38.00
2019-05-14T13:55:09.567Z,37.50
2019-05-14T13:57:39.922Z,36.60
2019-05-14T14:00:12.164Z,37.10
2019-05-14T14:02:40.756Z,37.10
2019-05-14T14:05:09.434Z,37.30
2019-05-14T14:07:39.673Z,38.60
2019-05-14T14:10:09.386Z,39.10
2019-05-14T14:12:40.363Z,37.80
2019-05-14T14:15:09.938Z,37.50
2019-05-14T14:17:39.582Z,36.90
2019-05-14T14:20:09.279Z,38.60
2019-05-14T14:22:40.096Z,39.10
2019-05-14T14:25:09.409Z,39.30
2019-05-14T14:27:40.641Z,39.00
2019-05-14T14:30:10.093Z,40.10
2019-05-14T14:32:41.171Z,39.50
2019-05-14T14:35:10.748Z,40.00
2019-05-14T14:37:40.054Z,39.40
2019-05-14T14:40:10.493Z,41.40
2019-05-14T14:42:40.413Z,40.50
2019-05-14T14:45:10.940Z,39.80
2019-05-14T14:47:40.031Z,39.40
2019-05-14T14:50:10.654Z,39.80
2019-05-14T14:52:39.153Z,38.10
2019-05-14T14:55:07.820Z,39.80
2019-05-14T14:57:43.770Z,36.40
2019-05-14T15:00:11.115Z,36.00
2019-05-14T15:02:41.157Z,36.30
2019-05-14T15:05:14.084Z,36.80
2019-05-14T15:07:41.130Z,38.00
2019-05-14T15:10:10.317Z,37.40
2019-05-14T15:12:39.899Z,37.50
2019-05-14T15:15:11.091Z,37.50
2019-05-14T15:17:39.654Z,39.60
2019-05-14T15:20:10.267Z,38.20
2019-05-14T15:22:39.071Z,38.80
2019-05-14T15:25:09.051Z,39.60
2019-05-14T15:27:38.627Z,39.20
2019-05-14T15:30:08.547Z,37.90
2019-05-14T15:32:37.016Z,38.30
2019-05-14T15:35:10.691Z,39.80
2019-05-14T15:37:42.267Z,39.80
2019-05-14T15:40:08.749Z,37.90
2019-05-14T15:42:39.479Z,38.50
2019-05-14T15:45:09.167Z,39.90
2019-05-14T15:47:38.989Z,39.10
2019-05-14T15:50:09.782Z,38.00
2019-05-14T15:52:39.395Z,39.20
2019-05-14T15:55:09.637Z,39.90
2019-05-14T15:57:39.868Z,40.00
2019-05-14T16:00:09.716Z,39.60
2019-05-14T16:02:39.547Z,39.00
2019-05-14T16:05:10.047Z,39.30
2019-05-14T16:07:39.413Z,39.20
2019-05-14T16:10:09.029Z,39.30
2019-05-14T16:12:39.927Z,39.10
2019-05-14T16:15:09.128Z,41.10
2019-05-14T16:17:48.091Z,41.20
2019-05-14T16:20:08.927Z,41.40
2019-05-14T16:22:39.705Z,40.50
2019-05-14T16:25:09.497Z,40.30
2019-05-14T16:27:39.628Z,38.80
2019-05-14T16:30:10.334Z,40.40
2019-05-14T16:32:39.891Z,40.00
2019-05-14T16:35:09.240Z,40.60
2019-05-14T16:37:39.142Z,40.30
2019-05-14T16:40:10.510Z,39.70
2019-05-14T16:42:39.847Z,40.00
2019-05-14T16:45:11.554Z,39.50
2019-05-14T16:47:41.944Z,40.20
2019-05-14T16:50:11.134Z,40.30
2019-05-14T16:52:42.196Z,39.20
2019-05-14T16:55:23.358Z,40.80
2019-05-14T16:57:42.560Z,39.80
2019-05-14T17:00:12.219Z,40.50
2019-05-14T17:02:40.723Z,41.60
2019-05-14T17:05:10.383Z,40.40
2019-05-14T17:07:38.889Z,39.90
2019-05-14T17:10:08.713Z,42.30
2019-05-14T17:12:49.754Z,42.50
2019-05-14T17:15:09.561Z,40.50
2019-05-14T17:17:38.521Z,40.70
2019-05-14T17:20:08.775Z,41.40
2019-05-14T17:22:39.832Z,41.40
2019-05-14T17:25:09.354Z,41.70
2019-05-14T17:27:39.435Z,42.30
2019-05-14T17:30:09.675Z,42.00
2019-05-14T17:32:39.198Z,42.30
2019-05-14T17:35:08.841Z,42.10
2019-05-14T17:37:39.578Z,42.20
2019-05-14T17:40:09.373Z,43.60
2019-05-14T17:42:39.342Z,43.70
2019-05-14T17:45:09.833Z,44.70
2019-05-14T17:47:38.972Z,44.90
2019-05-14T17:50:08.771Z,43.90
2019-05-14T17:52:42.781Z,44.50
2019-05-14T17:55:12.243Z,43.80
2019-05-14T17:57:46.578Z,44.70
2019-05-14T18:00:09.883Z,44.90
2019-05-14T18:02:38.485Z,45.20
2019-05-14T18:05:09.512Z,45.90
2019-05-14T18:07:38.289Z,46.00
2019-05-14T18:10:08.977Z,46.40
2019-05-14T18:12:40.089Z,45.60
2019-05-14T18:15:08.794Z,46.80
2019-05-14T18:17:39.332Z,47.40
2019-05-14T18:20:08.770Z,46.80
2019-05-14T18:22:42.207Z,47.00
2019-05-14T18:25:09.151Z,47.00
2019-05-14T18:27:39.170Z,47.40
2019-05-14T18:30:09.462Z,47.70
2019-05-14T18:32:38.320Z,46.90
2019-05-14T18:35:07.316Z,47.40
2019-05-14T18:37:35.853Z,47.30
2019-05-14T18:40:09.128Z,47.30
2019-05-14T18:42:39.069Z,48.30
2019-05-14T18:45:09.185Z,47.70
2019-05-14T18:47:39.757Z,48.20
2019-05-14T18:50:09.570Z,48.20
2019-05-14T18:52:39.969Z,49.10
2019-05-14T18:55:08.791Z,48.90
2019-05-14T18:57:38.181Z,48.90
2019-05-14T19:00:08.745Z,48.40
2019-05-14T19:02:39.254Z,49.40
2019-05-14T19:05:08.773Z,49.50
2019-05-14T19:07:39.511Z,50.30
2019-05-14T19:10:09.304Z,49.60
2019-05-14T19:12:38.957Z,50.10
2019-05-14T19:15:09.189Z,50.40
2019-05-14T19:17:38.634Z,51.00
2019-05-14T19:20:11.815Z,50.80
2019-05-14T19:22:40.349Z,51.40
2019-05-14T19:25:10.337Z,51.30
2019-05-14T19:27:38.785Z,51.70
2019-05-14T19:30:08.491Z,51.40
2019-05-14T19:32:39.237Z,51.20
2019-05-14T19:35:08.641Z,51.00
2019-05-14T19:37:39.128Z,51.70
2019-05-14T19:40:09.476Z,51.30
2019-05-14T19:42:39.210Z,51.80
2019-05-14T19:45:08.544Z,51.70
2019-05-14T19:47:40.136Z,51.90
2019-05-14T19:50:09.945Z,52.00
2019-05-14T19:52:40.537Z,51.70
2019-05-14T19:55:09.127Z,51.70
2019-05-14T19:57:38.321Z,51.80
2019-05-14T20:00:09.169Z,52.00
2019-05-14T20:02:37.981Z,52.20
2019-05-14T20:05:09.950Z,53.10
2019-05-14T20:07:39.036Z,52.70
2019-05-14T20:10:08.775Z,52.80
2019-05-14T20:12:39.260Z,53.00
2019-05-14T20:15:09.779Z,53.00
2019-05-14T20:17:38.733Z,52.80
2019-05-14T20:20:09.071Z,52.90
2019-05-14T20:22:39.181Z,53.60
2019-05-14T20:25:09.287Z,53.80
2019-05-14T20:27:38.981Z,53.70
2019-05-14T20:30:11.669Z,53.80
2019-05-14T20:32:40.113Z,53.80
2019-05-14T20:35:09.229Z,53.80
2019-05-14T20:37:38.701Z,54.00
2019-05-14T20:40:09.006Z,54.00
2019-05-14T20:42:39.271Z,54.30
2019-05-14T20:45:08.881Z,54.30
2019-05-14T20:47:39.071Z,54.50
2019-05-14T20:50:09.048Z,54.80
2019-05-14T20:52:37.706Z,55.40
2019-05-14T20:55:09.468Z,55.30
2019-05-14T20:57:38.540Z,55.70
2019-05-14T21:00:11.351Z,55.80
2019-05-14T21:02:43.778Z,56.00
2019-05-14T21:05:13.986Z,55.90
2019-05-14T21:07:43.553Z,56.30
2019-05-14T21:10:13.304Z,56.40
2019-05-14T21:12:41.894Z,56.40
2019-05-14T21:15:11.195Z,56.30
2019-05-14T21:17:39.962Z,56.50
2019-05-14T21:20:09.330Z,56.60
2019-05-14T21:22:40.354Z,56.50
2019-05-14T21:25:12.567Z,56.30
2019-05-14T21:27:48.059Z,56.70
2019-05-14T21:30:10.609Z,56.70
2019-05-14T21:32:42.403Z,56.90
2019-05-14T21:35:09.680Z,56.90
2019-05-14T21:37:39.473Z,57.10
2019-05-14T21:40:09.142Z,57.40
2019-05-14T21:42:38.584Z,57.90
2019-05-14T21:45:09.830Z,58.10
2019-05-14T21:47:38.893Z,58.50
2019-05-14T21:50:09.757Z,58.30
2019-05-14T21:52:42.172Z,58.60
2019-05-14T21:55:09.346Z,58.70
2019-05-14T21:57:46.575Z,58.50
2019-05-14T22:00:14.208Z,58.40
2019-05-14T22:02:42.843Z,58.20
2019-05-14T22:05:13.053Z,58.20
2019-05-14T22:07:41.637Z,58.10
2019-05-14T22:10:10.848Z,58.00
2019-05-14T22:12:39.671Z,58.00
2019-05-14T22:15:08.638Z,58.20
2019-05-14T22:17:38.237Z,58.30
2019-05-14T22:20:08.721Z,58.10
2019-05-14T22:22:39.027Z,58.00
2019-05-14T22:25:07.803Z,58.00
2019-05-14T22:27:39.169Z,58.20
2019-05-14T22:30:08.640Z,58.20
2019-05-14T22:32:38.370Z,58.50
2019-05-14T22:35:10.420Z,59.00
2019-05-14T22:37:39.238Z,59.10
2019-05-14T22:40:08.723Z,59.00
2019-05-14T22:42:39.325Z,59.00
2019-05-14T22:45:09.481Z,59.10
2019-05-14T22:47:40.519Z,58.80
2019-05-14T22:50:09.425Z,58.90
2019-05-14T22:52:38.764Z,59.00
2019-05-14T22:55:07.686Z,59.80
2019-05-14T22:57:38.894Z,59.80
2019-05-14T23:00:08.527Z,60.40
2019-05-14T23:02:38.248Z,60.40
2019-05-14T23:05:08.471Z,60.20
2019-05-14T23:07:38.479Z,60.20
2019-05-14T23:10:09.675Z,60.80
2019-05-14T23:12:38.676Z,60.80
2019-05-14T23:15:07.992Z,61.00
2019-05-14T23:17:38.698Z,61.00
2019-05-14T23:20:09.070Z,61.10
2019-05-14T23:22:39.133Z,61.40
2019-05-14T23:25:09.468Z,61.70
2019-05-14T23:27:39.318Z,61.40
2019-05-14T23:30:09.661Z,62.40
2019-05-14T23:32:38.707Z,61.50
2019-05-14T23:35:08.357Z,61.90
2019-05-14T23:37:36.999Z,62.50
2019-05-14T23:40:08.608Z,62.60
2019-05-14T23:42:39.348Z,62.80
2019-05-14T23:45:08.162Z,63.10
2019-05-14T23:47:38.388Z,63.20
2019-05-14T23:50:08.188Z,63.30
2019-05-14T23:52:38.791Z,63.40
2019-05-14T23:55:08.826Z,63.30
2019-05-14T23:57:37.522Z,63.30
